Terminal Aerodrome Forecast
Issued by NWS Pocatello, ID

Home | Current Version | Previous Version | Text Only | Print | Product List | Glossary On
Versions: 1 2 3 4 5 6 7 8 9 10 11 12 13
125
FTUS45 KPIH 210520
TAFIDA
TAF
KIDA 210520Z 2106/2206 21015KT P6SM SCT040 OVC100
     FM211100 21013KT P6SM SCT010 BKN080
     FM211700 21022G32KT P6SM SCT050 BKN150
     FM220200 20013KT P6SM VCSH BKN040 OVC080=

USA.gov is the U.S. government's official web portal to all federal, state and local government web resources and services.